Time;durP1;ratioP1;P1;durP2;ratioP2;P2;SDS_P1;SDS_P2;PMS_P1;PMS_P2;Temp;Humidity;BMP_temperature;BMP_pressure;BME280_temperature;BME280_humidity;BME280_pressure;Samples;Min_cycle;Max_cycle;Signal;HPM_P1;HPM_P2
2022/02/09 00:00:00;;;;;;;68.47;59.03;;;;;;;;;;4974016;28;20035;-80
2022/02/09 00:05:10;;;;;;;67.67;58.93;;;;;;;;;;4984430;28;20023;-82
2022/02/09 00:07:48;;;;;;;77.53;63.47;;;;;;;;;;4970911;28;20105;-80
2022/02/09 00:10:14;;;;;;;67.55;59.92;;;;;;;;;;4964991;28;20097;-81
2022/02/09 00:17:44;;;;;;;69.68;60.80;;;;;;;;;;4979593;28;20481;-79
2022/02/09 00:26:27;;;;;;;67.35;59.30;;;;;;;;;;4977995;28;20284;-80
2022/02/09 00:44:48;;;;;;;69.30;61.70;;;;;;;;;;4945436;28;20033;-80
2022/02/09 01:32:53;;;;;;;75.40;63.40;;;;;;;;;;4974011;28;20078;-80
2022/02/09 01:51:12;;;;;;;74.47;64.40;;;;;;;;;;4984204;28;20093;-80
2022/02/09 01:55:28;;;;;;;74.10;62.33;;;;;;;;;;4983866;28;20030;-80
2022/02/09 01:57:53;;;;;;;77.20;63.90;;;;;;;;;;4987119;28;20042;-80
2022/02/09 02:00:18;;;;;;;72.77;63.27;;;;;;;;;;4984627;28;20094;-80
2022/02/09 02:02:44;;;;;;;81.57;63.63;;;;;;;;;;4986442;28;20026;-80
2022/02/09 02:05:09;;;;;;;73.03;63.63;;;;;;;;;;4980569;28;20113;-80
2022/02/09 02:07:51;;;;;;;74.13;61.13;;;;;;;;;;4961565;28;20398;-80
2022/02/09 02:10:22;;;;;;;74.15;64.60;;;;;;;;;;4978362;28;20046;-80
2022/02/09 02:18:09;;;;;;;;;;;;;;;;;;4968870;28;20027;-81
2022/02/09 02:20:58;;;;;;;72.55;63.75;;;;;;;;;;4975367;28;20360;-80
2022/02/09 02:23:35;;;;;;;70.95;60.55;;;;;;;;;;4982117;28;20027;-81
2022/02/09 02:28:53;;;;;;;71.67;61.17;;;;;;;;;;4986444;28;20042;-80
2022/02/09 02:47:49;;;;;;;66.78;58.88;;;;;;;;;;4973420;28;20489;-81
2022/02/09 02:59:15;;;;;;;67.57;60.13;;;;;;;;;;4971419;28;20514;-85
2022/02/09 03:17:36;;;;;;;75.35;63.63;;;;;;;;;;4960502;28;20122;-84
2022/02/09 03:20:17;;;;;;;73.55;62.08;;;;;;;;;;4982856;28;20077;-85
2022/02/09 03:30:54;;;;;;;72.15;61.38;;;;;;;;;;4963888;28;20027;-85
2022/02/09 03:44:26;;;;;;;82.30;65.97;;;;;;;;;;4969904;29;20034;-86
2022/02/09 03:56:11;;;;;;;78.25;66.63;;;;;;;;;;4961758;28;20106;-85
2022/02/09 03:57:52;;;;;;;85.43;69.03;;;;;;;;;;4940873;29;20452;-86
2022/02/09 04:00:19;;;;;;;82.43;65.77;;;;;;;;;;4968983;28;20024;-85
2022/02/09 04:02:45;;;;;;;93.47;69.82;;;;;;;;;;4963163;28;20054;-85
2022/02/09 04:05:10;;;;;;;83.47;67.25;;;;;;;;;;4962812;28;20094;-84
2022/02/09 04:07:35;;;;;;;79.43;65.57;;;;;;;;;;4964506;28;20038;-86
2022/02/09 04:10:02;;;;;;;79.28;65.93;;;;;;;;;;4961473;28;20090;-84
2022/02/09 04:12:37;;;;;;;83.40;67.70;;;;;;;;;;4965876;28;20022;-85
2022/02/09 04:20:23;;;;;;;77.03;65.20;;;;;;;;;;4982233;28;20046;-86
2022/02/09 04:36:24;;;;;;;90.10;70.43;;;;;;;;;;4959893;28;20379;-86
2022/02/09 04:46:38;;;;;;;82.60;65.88;;;;;;;;;;4978127;28;20261;-86
2022/02/09 04:56:47;;;;;;;74.13;64.63;;;;;;;;;;4978793;28;20259;-87
2022/02/09 05:26:09;;;;;;;80.57;69.70;;;;;;;;;;4985362;28;20030;-85
2022/02/09 05:28:34;;;;;;;84.07;67.05;;;;;;;;;;4969525;28;20811;-84
2022/02/09 05:31:00;;;;;;;78.20;63.90;;;;;;;;;;4959283;28;20070;-86
2022/02/09 05:33:25;;;;;;;78.60;65.40;;;;;;;;;;4955763;28;20023;-84
2022/02/09 05:35:50;;;;;;;76.67;64.67;;;;;;;;;;4961900;28;20023;-84
2022/02/09 05:38:17;;;;;;;74.83;63.77;;;;;;;;;;4964509;28;20011;-86
2022/02/09 05:40:43;;;;;;;;;;;;;;;;;;4962491;28;20034;-87
2022/02/09 05:43:10;;;;;;;80.40;66.43;;;;;;;;;;4975795;28;20353;-85
2022/02/09 05:50:56;;;;;;;77.68;65.53;;;;;;;;;;4963793;28;20027;-85
2022/02/09 05:53:25;;;;;;;83.68;66.18;;;;;;;;;;4954169;28;20094;-86
2022/02/09 05:58:49;;;;;;;80.88;66.20;;;;;;;;;;4947075;28;20186;-84
2022/02/09 06:01:14;;;;;;;80.70;64.20;;;;;;;;;;4963091;29;20019;-85
2022/02/09 06:03:39;;;;;;;87.10;67.60;;;;;;;;;;4954441;28;20052;-86
2022/02/09 06:06:05;;;;;;;83.77;65.00;;;;;;;;;;4953701;29;20458;-86
2022/02/09 06:08:31;;;;;;;83.15;63.45;;;;;;;;;;4958124;28;20023;-86
2022/02/09 06:11:10;;;;;;;82.80;66.78;;;;;;;;;;4963140;29;20509;-86
2022/02/09 06:13:51;;;;;;;85.88;66.65;;;;;;;;;;4962826;28;20054;-85
2022/02/09 06:21:34;;;;;;;80.53;65.82;;;;;;;;;;4965503;29;20070;-86
2022/02/09 06:23:59;;;;;;;90.75;65.75;;;;;;;;;;4959478;28;20468;-84
2022/02/09 06:26:25;;;;;;;98.90;66.67;;;;;;;;;;4965242;28;20607;-85
2022/02/09 06:28:51;;;;;;;80.53;64.17;;;;;;;;;;4966766;28;20027;-85
2022/02/09 06:31:17;;;;;;;83.35;64.55;;;;;;;;;;4966953;28;20039;-84
2022/02/09 06:33:42;;;;;;;81.47;65.10;;;;;;;;;;4966382;28;20024;-85
2022/02/09 06:36:09;;;;;;;76.03;62.17;;;;;;;;;;4978347;28;20035;-85
2022/02/09 06:38:39;;;;;;;79.10;64.22;;;;;;;;;;4973188;28;20019;-87
2022/02/09 06:41:05;;;;;;;85.53;65.63;;;;;;;;;;4979386;28;20463;-86
2022/02/09 06:43:31;;;;;;;79.45;63.20;;;;;;;;;;4971837;28;20043;-86
2022/02/09 06:45:57;;;;;;;80.80;64.65;;;;;;;;;;4968087;29;20031;-85
2022/02/09 06:48:22;;;;;;;79.37;64.40;;;;;;;;;;4966635;29;20031;-85
2022/02/09 06:50:53;;;;;;;97.27;66.00;;;;;;;;;;4975475;29;20023;-86
2022/02/09 06:55:52;;;;;;;81.38;65.72;;;;;;;;;;4979650;28;20010;-86
2022/02/09 06:58:21;;;;;;;83.70;64.18;;;;;;;;;;4978510;28;20130;-85
2022/02/09 07:00:46;;;;;;;90.80;64.38;;;;;;;;;;4977954;28;20031;-85
2022/02/09 07:03:13;;;;;;;83.23;64.00;;;;;;;;;;4975557;28;20031;-87
2022/02/09 07:05:38;;;;;;;;;;;;;;;;;;4977868;28;20033;-87
2022/02/09 07:08:03;;;;;;;84.47;64.18;;;;;;;;;;4978997;28;19899;-86
2022/02/09 07:10:28;;;;;;;75.57;62.03;;;;;;;;;;4989437;28;20046;-86
2022/02/09 07:12:53;;;;;;;79.93;64.83;;;;;;;;;;4975673;28;20015;-87
2022/02/09 07:15:27;;;;;;;74.30;62.20;;;;;;;;;;4973755;29;20038;-86
2022/02/09 07:17:53;;;;;;;71.28;61.83;;;;;;;;;;4970162;29;20054;-85
2022/02/09 07:20:22;;;;;;;77.53;63.13;;;;;;;;;;4998441;28;20019;-85
2022/02/09 07:22:50;;;;;;;81.95;64.32;;;;;;;;;;4966066;28;20034;-85
2022/02/09 07:25:18;;;;;;;73.40;62.47;;;;;;;;;;4968353;29;20030;-87
2022/02/09 07:27:50;;;;;;;78.25;63.83;;;;;;;;;;4964224;28;20058;-86
2022/02/09 07:30:17;;;;;;;74.38;62.85;;;;;;;;;;4963183;28;20030;-84
2022/02/09 07:32:42;;;;;;;76.68;63.92;;;;;;;;;;4988894;28;20023;-85
2022/02/09 07:35:08;;;;;;;70.93;62.73;;;;;;;;;;4962655;28;20047;-86
2022/02/09 07:37:33;;;;;;;80.90;63.38;;;;;;;;;;4965424;29;20027;-84
2022/02/09 07:40:00;;;;;;;76.60;65.27;;;;;;;;;;4963160;29;20079;-85
2022/02/09 07:42:28;;;;;;;75.10;62.60;;;;;;;;;;4995252;28;20019;-85
2022/02/09 07:47:45;;;;;;;70.90;61.20;;;;;;;;;;4989562;28;20019;-85
2022/02/09 07:52:52;;;;;;;79.83;63.20;;;;;;;;;;4960794;29;20034;-86
2022/02/09 07:55:17;;;;;;;76.47;63.00;;;;;;;;;;4975279;28;20015;-87
2022/02/09 07:57:42;;;;;;;74.63;62.37;;;;;;;;;;4977158;28;21066;-89
2022/02/09 08:00:08;;;;;;;74.80;61.07;;;;;;;;;;5002434;28;20043;-89
2022/02/09 08:02:34;;;;;;;69.38;61.85;;;;;;;;;;4972846;28;20047;-85
2022/02/09 08:04:59;;;;;;;66.77;59.67;;;;;;;;;;4974194;28;20030;-86
2022/02/09 08:07:24;;;;;;;72.13;61.57;;;;;;;;;;4970601;28;20019;-86
2022/02/09 08:09:49;;;;;;;66.60;59.30;;;;;;;;;;4973679;28;20273;-88
2022/02/09 08:12:48;;;;;;;71.17;61.23;;;;;;;;;;5002490;28;20023;-85
2022/02/09 08:26:34;;;;;;;67.93;60.00;;;;;;;;;;4957817;28;20034;-84
2022/02/09 08:29:01;;;;;;;63.97;57.35;;;;;;;;;;4986899;28;20023;-84
2022/02/09 08:34:08;;;;;;;70.85;59.05;;;;;;;;;;4971935;28;20019;-85
2022/02/09 08:36:33;;;;;;;66.07;58.27;;;;;;;;;;4980070;28;20018;-85
2022/02/09 08:38:58;;;;;;;65.23;57.77;;;;;;;;;;4966420;28;20502;-85
2022/02/09 08:41:23;;;;;;;65.53;57.40;;;;;;;;;;4962901;28;20111;-85
2022/02/09 08:43:48;;;;;;;66.43;58.33;;;;;;;;;;4960141;28;20124;-84
2022/02/09 08:46:15;;;;;;;62.83;56.40;;;;;;;;;;4959607;28;20030;-85
2022/02/09 08:48:41;;;;;;;63.03;56.63;;;;;;;;;;4981363;28;20150;-86
2022/02/09 08:51:06;;;;;;;63.60;56.80;;;;;;;;;;4939361;28;1169495;-87
2022/02/09 08:53:33;;;;;;;68.30;57.10;;;;;;;;;;4985773;23;20046;-79
2022/02/09 08:55:58;;;;;;;62.47;55.95;;;;;;;;;;4974574;28;20018;-80
2022/02/09 08:58:24;;;;;;;63.87;57.23;;;;;;;;;;4980254;28;20431;-80
2022/02/09 09:00:50;;;;;;;60.57;54.53;;;;;;;;;;4981456;28;20502;-78
2022/02/09 09:03:20;;;;;;;;;;;;;;;;;;4977758;28;20042;-80
2022/02/09 09:05:50;;;;;;;62.45;55.97;;;;;;;;;;5004571;28;19961;-80
2022/02/09 09:08:44;;;;;;;61.92;55.45;;;;;;;;;;4974579;28;20023;-79
2022/02/09 10:05:42;;;;;;;63.20;56.67;;;;;;;;;;4983300;28;20055;-80
2022/02/09 10:32:58;;;;;;;70.47;60.47;;;;;;;;;;4978625;28;20069;-79
2022/02/09 10:37:49;;;;;;;62.33;55.90;;;;;;;;;;4974425;28;20113;-77
2022/02/09 10:40:27;;;;;;;62.60;56.03;;;;;;;;;;4981928;28;20019;-80
2022/02/09 10:42:58;;;;;;;72.07;60.30;;;;;;;;;;4983950;28;20109;-78
2022/02/09 10:45:33;;;;;;;62.70;56.10;;;;;;;;;;4986078;28;20385;-78
2022/02/09 10:47:59;;;;;;;62.30;55.83;;;;;;;;;;5009485;28;20495;-78
2022/02/09 10:50:31;;;;;;;61.20;54.95;;;;;;;;;;5017955;28;20098;-80
2022/02/09 10:52:59;;;;;;;65.63;58.38;;;;;;;;;;4987921;28;22946;-78
2022/02/09 10:55:46;;;;;;;61.67;55.22;;;;;;;;;;4977228;28;20027;-79
2022/02/09 10:58:17;;;;;;;62.10;55.47;;;;;;;;;;4987266;28;20019;-80
2022/02/09 11:00:43;;;;;;;62.15;55.72;;;;;;;;;;4984938;28;20031;-80
2022/02/09 11:03:22;;;;;;;62.88;56.42;;;;;;;;;;4978633;28;20026;-79
2022/02/09 11:05:49;;;;;;;60.63;54.85;;;;;;;;;;4982357;28;20188;-84
2022/02/09 11:08:14;;;;;;;63.53;56.63;;;;;;;;;;5006164;28;20030;-84
2022/02/09 11:10:40;;;;;;;62.30;55.77;;;;;;;;;;4987352;28;20026;-85
2022/02/09 11:13:12;;;;;;;62.77;56.17;;;;;;;;;;4984442;28;20587;-83
2022/02/09 11:15:41;;;;;;;62.38;55.15;;;;;;;;;;4989674;28;20023;-83
2022/02/09 11:18:09;;;;;;;60.42;54.30;;;;;;;;;;4987406;28;20091;-84
2022/02/09 11:20:54;;;;;;;60.22;54.13;;;;;;;;;;4986953;28;20039;-84
2022/02/09 11:23:37;;;;;;;62.20;55.50;;;;;;;;;;4981003;28;20026;-84
2022/02/09 11:26:09;;;;;;;59.40;53.45;;;;;;;;;;4980869;28;20029;-84
2022/02/09 11:28:40;;;;;;;61.47;55.15;;;;;;;;;;4988104;28;20042;-84
2022/02/09 11:31:22;;;;;;;59.38;53.45;;;;;;;;;;4986374;28;20023;-85
2022/02/09 11:34:01;;;;;;;59.58;53.40;;;;;;;;;;4981477;28;20019;-85
2022/02/09 11:36:33;;;;;;;58.75;53.08;;;;;;;;;;4978198;28;20269;-84
2022/02/09 11:39:03;;;;;;;59.97;53.83;;;;;;;;;;4983621;28;20042;-84
2022/02/09 11:41:39;;;;;;;60.05;53.80;;;;;;;;;;4980500;28;20111;-84
2022/02/09 11:44:18;;;;;;;56.25;51.05;;;;;;;;;;4981597;28;20096;-85
2022/02/09 11:46:56;;;;;;;61.38;53.47;;;;;;;;;;4984282;28;20048;-83
2022/02/09 12:00:58;;;;;;;59.45;53.00;;;;;;;;;;4970840;28;20025;-83
2022/02/09 12:09:36;;;;;;;60.33;53.97;;;;;;;;;;4957475;29;20420;-80
2022/02/09 12:12:11;;;;;;;61.58;54.92;;;;;;;;;;4956985;29;20046;-80
2022/02/09 12:14:50;;;;;;;57.75;52.03;;;;;;;;;;4969228;28;20523;-80
2022/02/09 12:19:57;;;;;;;59.70;53.72;;;;;;;;;;4979453;28;20026;-81
2022/02/09 12:22:29;;;;;;;59.75;53.65;;;;;;;;;;4979032;28;20029;-80
2022/02/09 12:24:57;;;;;;;60.05;53.90;;;;;;;;;;4974563;28;20050;-80
2022/02/09 12:27:23;;;;;;;58.22;52.33;;;;;;;;;;4978645;28;20021;-79
2022/02/09 12:29:57;;;;;;;58.83;52.93;;;;;;;;;;4980853;28;20015;-80
2022/02/09 12:32:23;;;;;;;59.47;53.20;;;;;;;;;;4979541;28;20014;-80
2022/02/09 12:35:05;;;;;;;58.50;52.53;;;;;;;;;;4977250;28;20388;-80
2022/02/09 12:37:32;;;;;;;58.53;52.58;;;;;;;;;;4985003;28;20023;-80
2022/02/09 12:39:58;;;;;;;;;;;;;;;;;;4981557;28;20018;-79
2022/02/09 12:42:27;;;;;;;58.30;52.60;;;;;;;;;;4983493;28;19906;-78
2022/02/09 12:45:00;;;;;;;57.47;51.58;;;;;;;;;;4982039;28;20476;-80
2022/02/09 12:47:33;;;;;;;57.50;52.00;;;;;;;;;;4980554;28;20026;-79
2022/02/09 12:49:58;;;;;;;59.25;53.17;;;;;;;;;;4983037;28;20023;-80
2022/02/09 12:52:29;;;;;;;60.57;54.20;;;;;;;;;;4987744;28;20022;-81
2022/02/09 12:55:09;;;;;;;59.40;53.20;;;;;;;;;;4988194;28;20029;-80
2022/02/09 12:57:36;;;;;;;58.45;52.38;;;;;;;;;;4986639;28;20026;-80
2022/02/09 13:00:01;;;;;;;;;;;;;;;;;;4991840;28;20011;-79
2022/02/09 13:02:39;;;;;;;60.33;53.78;;;;;;;;;;4992154;28;19917;-80
2022/02/09 13:05:05;;;;;;;56.33;51.13;;;;;;;;;;4993062;28;20042;-82
2022/02/09 13:07:30;;;;;;;58.67;52.40;;;;;;;;;;4995650;28;20018;-80
2022/02/09 13:09:56;;;;;;;57.27;51.67;;;;;;;;;;4995298;28;20027;-80
2022/02/09 13:12:21;;;;;;;;;;;;;;;;;;4993970;28;20057;-81
2022/02/09 13:14:49;;;;;;;59.72;53.40;;;;;;;;;;4991697;28;19938;-81
2022/02/09 13:20:16;;;;;;;58.75;52.85;;;;;;;;;;4999753;28;20019;-80
2022/02/09 14:08:03;;;;;;;56.08;50.88;;;;;;;;;;4979212;28;20050;-80
2022/02/09 14:13:18;;;;;;;64.70;56.20;;;;;;;;;;4995350;28;20074;-79
2022/02/09 14:24:00;;;;;;;60.40;54.15;;;;;;;;;;4979991;28;20034;-81
2022/02/09 14:34:56;;;;;;;57.85;52.28;;;;;;;;;;4989445;28;20023;-87
2022/02/09 14:48:23;;;;;;;57.92;52.40;;;;;;;;;;4986647;28;20061;-88
2022/02/09 14:58:28;;;;;;;58.53;52.75;;;;;;;;;;4989798;28;20015;-87
2022/02/09 15:04:15;;;;;;;57.28;51.72;;;;;;;;;;4985132;28;20022;-88
2022/02/09 15:06:31;;;;;;;59.60;53.63;;;;;;;;;;4985129;28;20038;-87
2022/02/09 15:11:39;;;;;;;58.13;52.45;;;;;;;;;;4987318;28;20038;-88
2022/02/09 15:17:24;;;;;;;57.22;51.75;;;;;;;;;;4984681;28;20023;-89
2022/02/09 15:19:36;;;;;;;57.03;51.72;;;;;;;;;;4975655;28;20034;-87
2022/02/09 15:22:05;;;;;;;56.38;51.15;;;;;;;;;;4989935;28;20106;-86
2022/02/09 15:24:39;;;;;;;57.95;52.08;;;;;;;;;;5004110;28;20041;-86
2022/02/09 15:27:05;;;;;;;57.25;51.70;;;;;;;;;;4999926;28;20007;-86
2022/02/09 15:29:31;;;;;;;56.97;51.42;;;;;;;;;;4990434;28;20015;-89
2022/02/09 15:32:03;;;;;;;56.60;51.22;;;;;;;;;;4998722;28;20027;-88
2022/02/09 15:34:33;;;;;;;56.65;51.40;;;;;;;;;;4997348;28;20071;-88
2022/02/09 15:39:25;;;;;;;57.53;51.83;;;;;;;;;;4998895;28;20122;-87
2022/02/09 15:42:08;;;;;;;57.25;51.72;;;;;;;;;;4988673;28;20022;-88
2022/02/09 16:07:51;;;;;;;55.53;50.17;;;;;;;;;;4988711;28;20091;-88
2022/02/09 16:09:32;;;;;;;55.17;49.95;;;;;;;;;;4978211;28;20098;-86
2022/02/09 16:22:45;;;;;;;56.50;50.83;;;;;;;;;;4988491;28;20027;-87
2022/02/09 16:33:17;;;;;;;57.25;51.30;;;;;;;;;;4998823;28;20026;-88
2022/02/09 16:46:40;;;;;;;56.80;50.95;;;;;;;;;;4986712;28;20057;-86
2022/02/09 16:49:13;;;;;;;57.10;51.33;;;;;;;;;;4972808;28;20024;-88
2022/02/09 16:51:50;;;;;;;56.13;50.85;;;;;;;;;;4983823;28;20026;-88
2022/02/09 17:21:14;;;;;;;59.35;51.97;;;;;;;;;;4969152;28;20043;-88
2022/02/09 17:23:39;;;;;;;56.90;50.95;;;;;;;;;;4963278;29;20045;-86
2022/02/09 17:26:05;;;;;;;57.45;51.58;;;;;;;;;;4968935;28;20054;-87
2022/02/09 17:28:30;;;;;;;57.50;51.03;;;;;;;;;;4978400;28;20030;-87
2022/02/09 17:31:02;;;;;;;56.87;50.93;;;;;;;;;;4977261;28;20115;-86
2022/02/09 17:33:42;;;;;;;57.63;51.10;;;;;;;;;;4983001;28;20043;-86
2022/02/09 17:36:26;;;;;;;59.90;50.33;;;;;;;;;;4981333;28;20027;-86
2022/02/09 17:39:03;;;;;;;56.05;50.53;;;;;;;;;;4979145;28;20023;-87
2022/02/09 17:55:30;;;;;;;57.83;51.67;;;;;;;;;;4974803;28;20026;-85
2022/02/09 17:58:02;;;;;;;57.53;50.55;;;;;;;;;;4972379;28;20459;-86
2022/02/09 18:00:29;;;;;;;57.55;51.58;;;;;;;;;;4971027;28;20047;-84
2022/02/09 18:02:55;;;;;;;61.60;52.80;;;;;;;;;;4980992;28;20019;-85
2022/02/09 18:08:07;;;;;;;69.75;56.45;;;;;;;;;;4988289;28;20035;-85
2022/02/09 18:10:59;;;;;;;62.88;51.95;;;;;;;;;;4989422;28;20117;-87
2022/02/09 18:31:37;;;;;;;57.90;50.85;;;;;;;;;;5000539;28;20031;-84
2022/02/09 18:45:16;;;;;;;61.65;51.80;;;;;;;;;;4999781;28;20026;-85
2022/02/09 18:59:21;;;;;;;57.08;51.03;;;;;;;;;;4991971;28;20038;-86
2022/02/09 19:04:00;;;;;;;58.33;52.13;;;;;;;;;;4995289;28;20038;-87
2022/02/09 19:06:38;;;;;;;57.80;51.53;;;;;;;;;;4991158;23;20073;-80
2022/02/09 19:19:39;;;;;;;71.45;56.08;;;;;;;;;;4973784;28;20031;-81
2022/02/09 19:46:47;;;;;;;74.90;55.47;;;;;;;;;;4980077;28;20050;-82
2022/02/09 19:52:00;;;;;;;58.10;51.90;;;;;;;;;;4981027;28;20015;-82
2022/02/09 19:56:58;;;;;;;64.10;54.80;;;;;;;;;;4976056;28;20869;-81
2022/02/09 19:59:23;;;;;;;59.88;53.33;;;;;;;;;;4975337;28;20011;-82
2022/02/09 20:01:49;;;;;;;59.53;52.80;;;;;;;;;;4992299;28;20089;-81
2022/02/09 20:04:15;;;;;;;63.47;53.30;;;;;;;;;;4993344;28;20027;-81
2022/02/09 20:06:40;;;;;;;60.72;53.78;;;;;;;;;;4973202;28;20058;-82
2022/02/09 20:09:05;;;;;;;61.20;54.42;;;;;;;;;;4977353;28;20033;-81
2022/02/09 20:11:31;;;;;;;61.63;54.50;;;;;;;;;;4992299;28;20003;-81
2022/02/09 20:13:57;;;;;;;62.35;53.88;;;;;;;;;;5002456;28;20105;-81
2022/02/09 20:16:22;;;;;;;67.43;55.23;;;;;;;;;;4977753;28;20516;-81
2022/02/09 20:18:52;;;;;;;63.28;53.55;;;;;;;;;;4980368;28;20014;-80
2022/02/09 20:21:19;;;;;;;60.45;53.83;;;;;;;;;;4981740;28;20034;-82
2022/02/09 20:23:45;;;;;;;60.95;54.00;;;;;;;;;;4988492;28;20436;-80
2022/02/09 20:26:11;;;;;;;71.03;57.17;;;;;;;;;;4988793;28;20025;-82
2022/02/09 20:28:40;;;;;;;62.15;54.17;;;;;;;;;;4975026;28;20023;-81
2022/02/09 20:31:10;;;;;;;61.40;54.60;;;;;;;;;;4975947;28;20027;-81
2022/02/09 20:33:43;;;;;;;60.63;53.88;;;;;;;;;;4976617;28;20019;-81
2022/02/09 20:36:11;;;;;;;63.63;54.45;;;;;;;;;;4990121;28;20074;-82
2022/02/09 20:38:37;;;;;;;68.22;55.50;;;;;;;;;;4975508;28;20017;-82
2022/02/09 20:41:07;;;;;;;;;;;;;;;;;;4990422;28;20030;-81
2022/02/09 20:43:39;;;;;;;84.32;60.45;;;;;;;;;;4971514;28;19968;-82
2022/02/09 20:46:06;;;;;;;72.53;56.40;;;;;;;;;;4972461;28;20029;-80
2022/02/09 20:48:31;;;;;;;65.05;53.97;;;;;;;;;;4993196;28;20377;-82
2022/02/09 20:50:58;;;;;;;66.53;54.50;;;;;;;;;;4979117;28;20026;-81
2022/02/09 20:53:23;;;;;;;;;;;;;;;;;;4993890;28;20018;-80
2022/02/09 20:55:49;;;;;;;67.60;55.20;;;;;;;;;;4990935;28;19945;-81
2022/02/09 20:58:14;;;;;;;61.58;53.78;;;;;;;;;;4990733;28;20030;-82
2022/02/09 21:03:28;;;;;;;62.40;52.80;;;;;;;;;;4986122;28;20027;-82
2022/02/09 21:08:56;;;;;;;61.22;54.30;;;;;;;;;;4981731;28;20046;-80
2022/02/09 21:11:46;;;;;;;68.72;54.58;;;;;;;;;;5003529;28;20090;-82
2022/02/09 21:14:41;;;;;;;61.90;52.65;;;;;;;;;;5004384;23;20042;-85
2022/02/09 21:20:22;;;;;;;59.88;53.40;;;;;;;;;;4990525;28;20049;-86
2022/02/09 21:23:12;;;;;;;58.30;52.40;;;;;;;;;;4991340;28;20046;-85
2022/02/09 21:29:01;;;;;;;57.33;51.40;;;;;;;;;;4972326;29;20026;-86
2022/02/09 21:31:38;;;;;;;61.85;52.78;;;;;;;;;;4971010;29;20106;-85
2022/02/09 21:56:03;;;;;;;60.22;53.17;;;;;;;;;;4965286;29;20046;-85
2022/02/09 22:06:31;;;;;;;61.00;52.10;;;;;;;;;;4972000;28;21504;-84
2022/02/09 22:19:58;;;;;;;57.97;51.60;;;;;;;;;;4968186;28;20019;-84
2022/02/09 22:28:04;;;;;;;57.70;51.15;;;;;;;;;;4967619;29;20050;-84
2022/02/09 22:56:48;;;;;;;58.53;51.67;;;;;;;;;;4977733;28;20026;-85
2022/02/09 23:02:00;;;;;;;60.85;52.28;;;;;;;;;;4978767;28;20067;-86
2022/02/09 23:07:22;;;;;;;58.30;52.05;;;;;;;;;;4976617;28;20023;-84
2022/02/09 23:10:00;;;;;;;67.20;54.33;;;;;;;;;;4975618;28;20015;-87
2022/02/09 23:12:34;;;;;;;67.85;54.38;;;;;;;;;;4979185;28;20038;-87
2022/02/09 23:24:04;;;;;;;68.55;53.92;;;;;;;;;;4975137;28;20019;-80
2022/02/09 23:53:26;;;;;;;58.85;52.75;;;;;;;;;;4979529;28;20034;-80
2022/02/09 23:58:52;;;;;;;68.82;55.45;;;;;;;;;;4968825;28;20074;-81
